F/V Oceanie — FVBW — position and weather

sailwx.info

Track history (hours):
 
Tides and Currents Weather Stations Pressure Air Temp Water Temp Dewpoint Dewpoint Depression Visibility Wind Speed Wind Dir Waves Ship Positions

F/V Oceanie

Last reported at 2017-Nov-18 03:04 UTC. Time now 2017-Nov-20 19:04 UTC.
Position N 47°44' W 003°22'.

Length 16 m.

Type: Fishing. MMSI: 228370000.

Date/timePositionNaut miles runAvg speedWind from/ knotsBaromVisibWave heightAir tempDewpointWater temp
2017-Nov-18 03:04N 47°44' W 003°22'0 0.0
2017-Nov-18 03:00N 47°44' W 003°22'0 0.4
2017-Nov-18 02:30N 47°44' W 003°22'0 0.0
2017-Nov-18 02:00N 47°44' W 003°22'0 0.3
2017-Nov-18 01:30N 47°44' W 003°22'0 0.0
2017-Nov-18 01:00N 47°44' W 003°22'4 8.7
2017-Nov-18 00:30N 47°39' W 003°23'5 9.3
2017-Nov-18 00:00N 47°35' W 003°25'5 9.2
2017-Nov-17 23:30N 47°32' W 003°30'3 5.7
2017-Nov-17 23:00N 47°29' W 003°32'2 3.9
2017-Nov-17 22:30N 47°27' W 003°33'2 3.8
2017-Nov-17 22:00N 47°26' W 003°33'2 4.1
2017-Nov-17 21:30N 47°24' W 003°30'2 4.0
2017-Nov-17 21:00N 47°23' W 003°29'2 4.2
2017-Nov-17 20:30N 47°21' W 003°27'2 4.0
2017-Nov-17 20:00N 47°20' W 003°24'1 2.8
2017-Nov-17 19:30N 47°20' W 003°26'2 3.8
2017-Nov-17 19:00N 47°21' W 003°28'2 4.3
2017-Nov-17 18:30N 47°24' W 003°29'2 4.4
2017-Nov-17 18:00N 47°25' W 003°31'2 3.4
2017-Nov-17 17:30N 47°25' W 003°34'2 3.1
2017-Nov-17 17:00N 47°25' W 003°31'2 3.4
2017-Nov-17 16:30N 47°26' W 003°34'2 4.3
2017-Nov-17 16:00N 47°28' W 003°35'2 3.7
2017-Nov-17 15:30N 47°27' W 003°32'2 3.4
2017-Nov-17 15:00N 47°26' W 003°34'2 4.4
2017-Nov-17 14:30N 47°28' W 003°37'1 2.6
2017-Nov-17 14:00N 47°29' W 003°37'2 3.2
2017-Nov-17 13:30N 47°28' W 003°35'2 4.0
2017-Nov-17 13:00N 47°26' W 003°33'1 2.8
2017-Nov-17 12:30N 47°28' W 003°33'2 3.8
2017-Nov-17 12:00N 47°27' W 003°35'2 4.2
2017-Nov-17 11:30N 47°28' W 003°38'2 4.3
2017-Nov-17 11:00N 47°30' W 003°37'2 3.3
2017-Nov-17 10:30N 47°31' W 003°34'2 3.7
2017-Nov-17 10:00N 47°29' W 003°34'1 1.7
2017-Nov-17 09:30N 47°30' W 003°33'2 4.2
2017-Nov-17 09:00N 47°31' W 003°35'1 2.4
2017-Nov-17 08:30N 47°32' W 003°34'2 3.8
2017-Nov-17 08:00N 47°31' W 003°32'2 4.2
2017-Nov-17 07:30N 47°33' W 003°31'2 4.0
2017-Nov-17 07:00N 47°34' W 003°34'2 4.4
2017-Nov-17 06:30N 47°36' W 003°36'1 1.4
2017-Nov-17 06:00N 47°36' W 003°37'0 0.6
2017-Nov-17 05:30N 47°36' W 003°36'3 5.8
2017-Nov-17 05:00N 47°39' W 003°33'4 7.7
2017-Nov-17 04:30N 47°40' W 003°28'4 7.8
2017-Nov-17 04:00N 47°42' W 003°23'2 4.3
2017-Nov-17 03:30N 47°44' W 003°22'0 0.0
2017-Nov-17 03:00N 47°44' W 003°22'0 0.3
2017-Nov-17 02:30N 47°44' W 003°22'0 0.1
2017-Nov-17 02:00N 47°44' W 003°22'5 9.0
2017-Nov-17 01:30N 47°39' W 003°23'5 9.1
2017-Nov-17 01:00N 47°35' W 003°25'4 8.6
2017-Nov-17 00:30N 47°31' W 003°27'2 3.7
2017-Nov-17 00:00N 47°29' W 003°27'2 4.5
2017-Nov-16 23:30N 47°27' W 003°28'2 4.3
2017-Nov-16 23:00N 47°25' W 003°28'2 4.4
2017-Nov-16 22:30N 47°23' W 003°28'2 3.7
2017-Nov-16 22:00N 47°22' W 003°31'2 3.8
2017-Nov-16 21:30N 47°21' W 003°29'2 3.6
2017-Nov-16 21:00N 47°20' W 003°27'2 3.3
2017-Nov-16 20:30N 47°21' W 003°24'2 3.8
2017-Nov-16 20:00N 47°22' W 003°26'2 3.6
2017-Nov-16 19:30N 47°23' W 003°28'2 4.2
2017-Nov-16 19:00N 47°25' W 003°29'2 4.1
2017-Nov-16 18:30N 47°26' W 003°32'2 3.8
2017-Nov-16 18:00N 47°27' W 003°34'2 3.0
2017-Nov-16 17:30N 47°29' W 003°35'2 3.4
2017-Nov-16 17:00N 47°30' W 003°33'2 4.6
2017-Nov-16 16:30N 47°32' W 003°36'1 2.7
2017-Nov-16 16:00N 47°31' W 003°34'2 4.3
2017-Nov-16 15:30N 47°29' W 003°32'1 2.8
2017-Nov-16 15:00N 47°28' W 003°31'2 4.4
2017-Nov-16 14:30N 47°31' W 003°31'2 3.1
2017-Nov-16 14:00N 47°31' W 003°33'1 2.3
2017-Nov-16 13:30N 47°31' W 003°35'1 2.7
2017-Nov-16 13:00N 47°32' W 003°34'2 3.8
2017-Nov-16 12:30N 47°31' W 003°32'2 3.8
2017-Nov-16 12:00N 47°30' W 003°31'2 3.2
2017-Nov-16 11:30N 47°28' W 003°32'2 4.2
2017-Nov-16 11:00N 47°30' W 003°33'2 3.4
2017-Nov-16 10:30N 47°30' W 003°30'1 2.4
2017-Nov-16 10:00N 47°29' W 003°32'2 4.1
2017-Nov-16 09:30N 47°31' W 003°33'2 3.6
2017-Nov-16 09:00N 47°33' W 003°31'2 3.8
2017-Nov-16 08:30N 47°34' W 003°33'2 4.0
2017-Nov-16 08:00N 47°35' W 003°35'1 2.7
2017-Nov-16 07:30N 47°36' W 003°33'2 4.4
2017-Nov-16 07:00N 47°34' W 003°31'2 4.2
2017-Nov-16 06:30N 47°32' W 003°31'2 3.5
2017-Nov-16 06:00N 47°30' W 003°31'2 4.0
2017-Nov-16 05:30N 47°28' W 003°30'2 3.8
2017-Nov-16 05:00N 47°26' W 003°29'2 3.8
2017-Nov-16 04:30N 47°25' W 003°28'2 4.1
2017-Nov-16 04:00N 47°23' W 003°28'2 3.9
2017-Nov-16 03:30N 47°21' W 003°27'2 3.7
2017-Nov-16 03:00N 47°20' W 003°24'1 2.5
2017-Nov-16 02:30N 47°20' W 003°26'2 3.6
2017-Nov-16 02:00N 47°21' W 003°28'1 2.9
2017-Nov-16 01:30N 47°20' W 003°26'1 3.0
2017-Nov-16 01:00N 47°19' W 003°25'2 3.8
2017-Nov-16 00:30N 47°20' W 003°27'2 4.0
2017-Nov-16 00:00N 47°21' W 003°29'1 1.9
2017-Nov-15 23:30N 47°22' W 003°29'2 3.5
2017-Nov-15 23:00N 47°22' W 003°27'2 4.2
2017-Nov-15 22:30N 47°21' W 003°24'3 6.5
2017-Nov-15 22:00N 47°21' W 003°19'1 2.1
2017-Nov-15 21:30N 47°21' W 003°21'1 2.5
2017-Nov-15 21:00N 47°22' W 003°22'2 3.7
2017-Nov-15 20:30N 47°24' W 003°23'2 3.7
2017-Nov-15 20:00N 47°25' W 003°24'1 2.3
2017-Nov-15 19:30N 47°26' W 003°23'3 5.3
2017-Nov-15 19:00N 47°26' W 003°27'2 3.5
2017-Nov-15 18:30N 47°28' W 003°28'2 4.2
2017-Nov-15 18:00N 47°29' W 003°30'2 4.3
2017-Nov-15 17:30N 47°30' W 003°33'2 4.1
2017-Nov-15 17:00N 47°32' W 003°31'2 4.1
2017-Nov-15 16:30N 47°34' W 003°32'1 2.0
2017-Nov-15 16:00N 47°34' W 003°31'2 4.0
2017-Nov-15 15:30N 47°34' W 003°34'1 2.2
2017-Nov-15 15:00N 47°35' W 003°33'2 4.3
2017-Nov-15 14:30N 47°34' W 003°31'2 3.7
2017-Nov-15 14:00N 47°34' W 003°34'1 2.1
2017-Nov-15 13:30N 47°35' W 003°34'2 4.4
2017-Nov-15 13:00N 47°34' W 003°32'1 1.5
2017-Nov-15 12:30N 47°34' W 003°32'2 4.2
2017-Nov-15 12:00N 47°35' W 003°35'2 3.5
2017-Nov-15 11:30N 47°36' W 003°37'2 3.6
2017-Nov-15 11:00N 47°36' W 003°40'2 4.0
2017-Nov-15 10:30N 47°34' W 003°38'2 3.6
2017-Nov-15 10:00N 47°35' W 003°40'2 3.9
2017-Nov-15 09:30N 47°36' W 003°42'2 3.7
2017-Nov-15 09:00N 47°37' W 003°44'1 1.7
2017-Nov-15 08:30N 47°38' W 003°44'2 3.7
2017-Nov-15 08:00N 47°38' W 003°42'1 2.5
2017-Nov-15 07:30N 47°38' W 003°44'1 2.4
2017-Nov-15 06:59N 47°37' W 003°42'1 2.4
2017-Nov-15 06:30N 47°38' W 003°43'1 2.8
2017-Nov-15 06:00N 47°39' W 003°42'0 0.9
2017-Nov-15 05:30N 47°39' W 003°43'0 0.5
2017-Nov-15 05:00N 47°39' W 003°42'3 5.3
2017-Nov-15 04:30N 47°39' W 003°39'4 7.8
2017-Nov-15 04:00N 47°40' W 003°33'4 7.8
2017-Nov-15 03:30N 47°40' W 003°27'4 8.3
2017-Nov-15 03:00N 47°43' W 003°22'1 1.9
2017-Nov-15 02:30N 47°44' W 003°22'0 0.0
2017-Nov-15 02:00N 47°44' W 003°22'4 7.2
2017-Nov-15 01:30N 47°40' W 003°22'4 8.9
2017-Nov-15 01:00N 47°36' W 003°24'4 8.9
2017-Nov-15 00:30N 47°33' W 003°29'4 8.7
2017-Nov-15 00:00N 47°30' W 003°34'3 5.4
2017-Nov-14 23:30N 47°29' W 003°38'2 4.1
2017-Nov-14 23:00N 47°27' W 003°38'2 3.9
2017-Nov-14 22:30N 47°25' W 003°38'2 3.7
2017-Nov-14 22:00N 47°24' W 003°40'2 4.2
2017-Nov-14 21:30N 47°25' W 003°43'2 3.4
2017-Nov-14 21:00N 47°26' W 003°42'2 4.3
2017-Nov-14 20:30N 47°26' W 003°38'2 3.8
2017-Nov-14 20:00N 47°27' W 003°36'2 4.0
2017-Nov-14 19:30N 47°29' W 003°38'2 4.5
2017-Nov-14 19:00N 47°31' W 003°37'2 4.3
2017-Nov-14 18:30N 47°33' W 003°37'2 4.4
2017-Nov-14 18:00N 47°35' W 003°39'2 3.7
2017-Nov-14 17:30N 47°35' W 003°41'2 4.4
2017-Nov-14 17:00N 47°37' W 003°43'1 2.8
2017-Nov-14 16:30N 47°38' W 003°42'1 2.6
2017-Nov-14 16:00N 47°37' W 003°43'1 2.9
2017-Nov-14 15:30N 47°38' W 003°45'2 3.9
2017-Nov-14 15:00N 47°37' W 003°43'2 3.1
2017-Nov-14 14:30N 47°36' W 003°41'1 2.1
2017-Nov-14 14:00N 47°37' W 003°42'2 3.6
2017-Nov-14 13:30N 47°38' W 003°43'2 3.4
2017-Nov-14 13:00N 47°37' W 003°43'2 3.4
2017-Nov-14 12:30N 47°36' W 003°41'2 3.3
2017-Nov-14 12:00N 47°35' W 003°43'2 3.9
2017-Nov-14 11:30N 47°37' W 003°43'2 4.2
2017-Nov-14 11:00N 47°38' W 003°45'2 4.2
2017-Nov-14 10:30N 47°38' W 003°42'1 2.4
2017-Nov-14 10:00N 47°37' W 003°43'1 1.9
2017-Nov-14 09:30N 47°37' W 003°45'2 4.1
2017-Nov-14 09:00N 47°36' W 003°43'1 3.0
2017-Nov-14 08:30N 47°35' W 003°41'2 3.1
2017-Nov-14 08:00N 47°35' W 003°43'2 3.7
2017-Nov-14 07:30N 47°37' W 003°43'1 2.3
2017-Nov-14 07:00N 47°38' W 003°42'1 2.6
2017-Nov-14 06:30N 47°37' W 003°44'1 2.6
2017-Nov-14 06:00N 47°39' W 003°43'0 0.3
2017-Nov-14 05:30N 47°39' W 003°42'0 0.3
2017-Nov-14 05:00N 47°39' W 003°42'1 1.6
2017-Nov-14 04:30N 47°39' W 003°41'4 8.5
2017-Nov-14 04:00N 47°40' W 003°35'4 8.6
2017-Nov-14 03:30N 47°40' W 003°29'4 8.6
2017-Nov-14 03:00N 47°42' W 003°23'2 4.1
2017-Nov-14 02:30N 47°44' W 003°22'1 1.7
2017-Nov-14 02:00N 47°43' W 003°22'4 8.5
2017-Nov-14 01:30N 47°39' W 003°23'4 8.7
2017-Nov-14 01:00N 47°35' W 003°26'4 7.9
2017-Nov-14 00:30N 47°32' W 003°31'2 3.7
2017-Nov-14 00:00N 47°31' W 003°31'2 4.1
2017-Nov-13 23:30N 47°29' W 003°30'2 4.1
2017-Nov-13 23:00N 47°27' W 003°29'2 4.1
2017-Nov-13 22:30N 47°25' W 003°28'2 3.8
2017-Nov-13 22:00N 47°23' W 003°28'70 3.5
2017-Nov-13 02:00N 47°56' W 004°59'1 2.9
2017-Nov-13 01:30N 47°55' W 005°00'1 1.7
2017-Nov-13 01:00N 47°54' W 004°60'1 2.9
2017-Nov-13 00:30N 47°54' W 004°57'0 0.5
2017-Nov-13 00:00N 47°54' W 004°58'2 3.1
2017-Nov-12 23:30N 47°55' W 004°60'2 3.8
2017-Nov-12 23:00N 47°57' W 004°60'1 1.0
2017-Nov-12 22:30N 47°57' W 004°60'2 3.0
2017-Nov-12 22:01N 47°59' W 004°59'2 3.4
2017-Nov-12 21:31N 47°59' W 004°57'2 3.7
2017-Nov-12 21:00N 47°58' W 004°55'2 4.0
2017-Nov-12 20:30N 47°57' W 004°52'8 4.2
2017-Nov-12 18:29N 47°53' W 004°41'4 8.0
2017-Nov-12 17:59N 47°51' W 004°36'4 7.9
2017-Nov-12 17:25N 47°48' W 004°30'3 7.8
2017-Nov-12 16:59N 47°47' W 004°26'4 8.0
2017-Nov-12 16:30N 47°45' W 004°21'16 8.5
2017-Nov-12 14:39N 47°45' W 003°57'4 8.6
2017-Nov-12 14:12N 47°44' W 003°52'2 8.6
2017-Nov-12 14:00N 47°44' W 003°49'4 8.6
2017-Nov-12 13:30N 47°43' W 003°43'4 8.5
2017-Nov-12 13:00N 47°42' W 003°37'4 8.3
2017-Nov-12 12:30N 47°41' W 003°31'4 8.2
2017-Nov-12 12:00N 47°41' W 003°25'3 6.5
2017-Nov-12 11:30N 47°44' W 003°22'0 0.0
2017-Nov-11 14:28N 47°44' W 003°22'0 0.0
2017-Nov-11 14:00N 47°44' W 003°22'0 0.0
2017-Nov-11 13:30N 47°44' W 003°22'0 0.0
2017-Nov-11 13:00N 47°44' W 003°22'0 0.4
2017-Nov-11 12:30N 47°44' W 003°22'0 0.0
2017-Nov-11 12:00N 47°44' W 003°22'0 0.0
2017-Nov-11 11:30N 47°44' W 003°22'0 0.0
2017-Nov-11 11:00N 47°44' W 003°22'2 4.5
2017-Nov-11 10:30N 47°42' W 003°23'4 9.0
2017-Nov-11 10:00N 47°41' W 003°30'5 9.4
2017-Nov-11 09:30N 47°42' W 003°36'5 9.3
2017-Nov-11 09:00N 47°43' W 003°43'5 9.3
2017-Nov-11 08:30N 47°44' W 003°50'7 9.7
2017-Nov-11 07:46N 47°45' W 004°01'8 9.6
2017-Nov-11 06:55N 47°45' W 004°13'4 9.8
2017-Nov-11 06:30N 47°45' W 004°19'5 9.4
2017-Nov-11 05:59N 47°46' W 004°26'4 8.8
2017-Nov-11 05:30N 47°48' W 004°31'4 8.8
2017-Nov-11 05:00N 47°51' W 004°37'4 8.7
2017-Nov-11 04:30N 47°53' W 004°42'4 8.4
2017-Nov-11 04:01N 47°54' W 004°48'4 8.0
2017-Nov-11 03:31N 47°57' W 004°53'3 6.3
2017-Nov-11 03:01N 47°58' W 004°57'3 6.0
2017-Nov-11 02:31N 47°60' W 005°01'1 2.5
2017-Nov-11 02:00N 48°00' W 005°02'1 2.2
2017-Nov-11 01:30N 47°60' W 005°01'1 2.7
2017-Nov-11 01:00N 47°58' W 005°00'1 2.7
2017-Nov-11 00:30N 47°57' W 004°59'1 1.9
2017-Nov-11 00:00N 47°58' W 005°00'1 2.5
2017-Nov-10 23:30N 47°58' W 004°58'1 2.4
2017-Nov-10 23:00N 47°57' W 004°57'2 3.0
2017-Nov-10 22:31N 47°56' W 004°55'1 2.9
2017-Nov-10 22:01N 47°58' W 004°56'2 4.3
2017-Nov-10 21:31N 47°58' W 004°59'2 4.3
2017-Nov-10 21:00N 47°60' W 005°02'1 1.1
2017-Nov-10 20:31N 47°60' W 005°01'2 3.3
2017-Nov-10 20:01N 47°58' W 004°60'1 1.7
2017-Nov-10 19:31N 47°58' W 004°58'2 3.5
2017-Nov-10 19:00N 47°57' W 004°56'2 3.9
2017-Nov-10 18:31N 47°57' W 004°53'2 4.0
2017-Nov-10 18:00N 47°56' W 004°51'2 3.9
2017-Nov-10 17:30N 47°55' W 004°48'2 3.9
2017-Nov-10 17:01N 47°54' W 004°46'4 8.1
2017-Nov-10 16:30N 47°51' W 004°42'4 8.5
2017-Nov-10 15:59N 47°47' W 004°38'4 8.3
2017-Nov-10 15:30N 47°44' W 004°35'5 8.2
2017-Nov-10 14:56N 47°40' W 004°30'2 2.6
2017-Nov-10 14:18N 47°40' W 004°28'1 3.6
2017-Nov-10 13:57N 47°40' W 004°26'2 3.6
2017-Nov-10 13:26N 47°39' W 004°24'2 3.5
2017-Nov-10 12:54N 47°38' W 004°21'1 3.6
2017-Nov-10 12:29N 47°38' W 004°19'14 3.2
2017-Nov-10 08:05N 47°33' W 003°59'0 3.5
2017-Nov-10 08:00N 47°33' W 003°58'2 3.4
2017-Nov-10 07:30N 47°33' W 003°56'3 7.0
2017-Nov-10 07:00N 47°34' W 003°51'4 8.2
2017-Nov-10 06:31N 47°36' W 003°45'4 8.5
2017-Nov-10 06:01N 47°37' W 003°40'4 8.6
2017-Nov-10 05:31N 47°39' W 003°34'4 8.6
2017-Nov-10 05:01N 47°40' W 003°28'4 8.3
2017-Nov-10 04:31N 47°42' W 003°22'1 2.8
2017-Nov-10 04:01N 47°44' W 003°22'0 0.0
2017-Nov-10 03:31N 47°44' W 003°22'0 0.3
2017-Nov-10 03:00N 47°44' W 003°22'0 0.0
2017-Nov-10 02:31N 47°44' W 003°22'0 0.0
2017-Nov-10 02:01N 47°44' W 003°22'0 0.0
2017-Nov-10 01:31N 47°44' W 003°22'2 4.4
2017-Nov-10 01:00N 47°42' W 003°22'4 8.7
2017-Nov-10 00:31N 47°38' W 003°19'4 9.0
2017-Nov-10 00:01N 47°34' W 003°16'5 9.2
2017-Nov-09 23:31N 47°30' W 003°13'5 9.3
2017-Nov-09 23:01N 47°26' W 003°09'5 9.1
2017-Nov-09 22:30N 47°22' W 003°05'4 8.4
2017-Nov-09 22:00N 47°18' W 003°02'4 8.5
2017-Nov-09 21:30N 47°14' W 003°01'4 8.7
2017-Nov-09 21:00N 47°10' W 002°60'19 0.5
2017-Nov-08 05:07N 47°07' W 003°27'1 4.2
2017-Nov-08 04:58N 47°07' W 003°27'2 4.0
2017-Nov-08 04:29N 47°09' W 003°28'2 4.5
2017-Nov-08 04:00N 47°11' W 003°28'3 7.0
2017-Nov-08 03:31N 47°15' W 003°29'  
Track history (hours):
 
Tides and Currents Weather Stations Pressure Air Temp Water Temp Dewpoint Dewpoint Depression Visibility Wind Speed Wind Dir Waves Ship Positions

F/V Oceanie

Last reported at 2017-Nov-18 03:04 UTC. Time now 2017-Nov-20 19:04 UTC.
Position N 47°44' W 003°22'.

Length 16 m.

Type: Fishing. MMSI: 228370000.

Date/timePositionNaut miles runAvg speedWind from/ knotsBaromVisibWave heightAir tempDewpointWater temp
2017-Nov-18 03:04N 47°44' W 003°22'0 0.0
2017-Nov-18 03:00N 47°44' W 003°22'0 0.4
2017-Nov-18 02:30N 47°44' W 003°22'0 0.0
2017-Nov-18 02:00N 47°44' W 003°22'0 0.3
2017-Nov-18 01:30N 47°44' W 003°22'0 0.0
2017-Nov-18 01:00N 47°44' W 003°22'4 8.7
2017-Nov-18 00:30N 47°39' W 003°23'5 9.3
2017-Nov-18 00:00N 47°35' W 003°25'5 9.2
2017-Nov-17 23:30N 47°32' W 003°30'3 5.7
2017-Nov-17 23:00N 47°29' W 003°32'2 3.9
2017-Nov-17 22:30N 47°27' W 003°33'2 3.8
2017-Nov-17 22:00N 47°26' W 003°33'2 4.1
2017-Nov-17 21:30N 47°24' W 003°30'2 4.0
2017-Nov-17 21:00N 47°23' W 003°29'2 4.2
2017-Nov-17 20:30N 47°21' W 003°27'2 4.0
2017-Nov-17 20:00N 47°20' W 003°24'1 2.8
2017-Nov-17 19:30N 47°20' W 003°26'2 3.8
2017-Nov-17 19:00N 47°21' W 003°28'2 4.3
2017-Nov-17 18:30N 47°24' W 003°29'2 4.4
2017-Nov-17 18:00N 47°25' W 003°31'2 3.4
2017-Nov-17 17:30N 47°25' W 003°34'2 3.1
2017-Nov-17 17:00N 47°25' W 003°31'2 3.4
2017-Nov-17 16:30N 47°26' W 003°34'2 4.3
2017-Nov-17 16:00N 47°28' W 003°35'2 3.7
2017-Nov-17 15:30N 47°27' W 003°32'2 3.4
2017-Nov-17 15:00N 47°26' W 003°34'2 4.4
2017-Nov-17 14:30N 47°28' W 003°37'1 2.6
2017-Nov-17 14:00N 47°29' W 003°37'2 3.2
2017-Nov-17 13:30N 47°28' W 003°35'2 4.0
2017-Nov-17 13:00N 47°26' W 003°33'1 2.8
2017-Nov-17 12:30N 47°28' W 003°33'2 3.8
2017-Nov-17 12:00N 47°27' W 003°35'2 4.2
2017-Nov-17 11:30N 47°28' W 003°38'2 4.3
2017-Nov-17 11:00N 47°30' W 003°37'2 3.3
2017-Nov-17 10:30N 47°31' W 003°34'2 3.7
2017-Nov-17 10:00N 47°29' W 003°34'1 1.7
2017-Nov-17 09:30N 47°30' W 003°33'2 4.2
2017-Nov-17 09:00N 47°31' W 003°35'1 2.4
2017-Nov-17 08:30N 47°32' W 003°34'2 3.8
2017-Nov-17 08:00N 47°31' W 003°32'2 4.2
2017-Nov-17 07:30N 47°33' W 003°31'2 4.0
2017-Nov-17 07:00N 47°34' W 003°34'2 4.4
2017-Nov-17 06:30N 47°36' W 003°36'1 1.4
2017-Nov-17 06:00N 47°36' W 003°37'0 0.6
2017-Nov-17 05:30N 47°36' W 003°36'3 5.8
2017-Nov-17 05:00N 47°39' W 003°33'4 7.7
2017-Nov-17 04:30N 47°40' W 003°28'4 7.8
2017-Nov-17 04:00N 47°42' W 003°23'2 4.3
2017-Nov-17 03:30N 47°44' W 003°22'0 0.0
2017-Nov-17 03:00N 47°44' W 003°22'0 0.3
2017-Nov-17 02:30N 47°44' W 003°22'0 0.1
2017-Nov-17 02:00N 47°44' W 003°22'5 9.0
2017-Nov-17 01:30N 47°39' W 003°23'5 9.1
2017-Nov-17 01:00N 47°35' W 003°25'4 8.6
2017-Nov-17 00:30N 47°31' W 003°27'2 3.7
2017-Nov-17 00:00N 47°29' W 003°27'2 4.5
2017-Nov-16 23:30N 47°27' W 003°28'2 4.3
2017-Nov-16 23:00N 47°25' W 003°28'2 4.4
2017-Nov-16 22:30N 47°23' W 003°28'2 3.7
2017-Nov-16 22:00N 47°22' W 003°31'2 3.8
2017-Nov-16 21:30N 47°21' W 003°29'2 3.6
2017-Nov-16 21:00N 47°20' W 003°27'2 3.3
2017-Nov-16 20:30N 47°21' W 003°24'2 3.8
2017-Nov-16 20:00N 47°22' W 003°26'2 3.6
2017-Nov-16 19:30N 47°23' W 003°28'2 4.2
2017-Nov-16 19:00N 47°25' W 003°29'2 4.1
2017-Nov-16 18:30N 47°26' W 003°32'2 3.8
2017-Nov-16 18:00N 47°27' W 003°34'2 3.0
2017-Nov-16 17:30N 47°29' W 003°35'2 3.4
2017-Nov-16 17:00N 47°30' W 003°33'2 4.6
2017-Nov-16 16:30N 47°32' W 003°36'1 2.7
2017-Nov-16 16:00N 47°31' W 003°34'2 4.3
2017-Nov-16 15:30N 47°29' W 003°32'1 2.8
2017-Nov-16 15:00N 47°28' W 003°31'2 4.4
2017-Nov-16 14:30N 47°31' W 003°31'2 3.1
2017-Nov-16 14:00N 47°31' W 003°33'1 2.3
2017-Nov-16 13:30N 47°31' W 003°35'1 2.7
2017-Nov-16 13:00N 47°32' W 003°34'2 3.8
2017-Nov-16 12:30N 47°31' W 003°32'2 3.8
2017-Nov-16 12:00N 47°30' W 003°31'2 3.2
2017-Nov-16 11:30N 47°28' W 003°32'2 4.2
2017-Nov-16 11:00N 47°30' W 003°33'2 3.4
2017-Nov-16 10:30N 47°30' W 003°30'1 2.4
2017-Nov-16 10:00N 47°29' W 003°32'2 4.1
2017-Nov-16 09:30N 47°31' W 003°33'2 3.6
2017-Nov-16 09:00N 47°33' W 003°31'2 3.8
2017-Nov-16 08:30N 47°34' W 003°33'2 4.0
2017-Nov-16 08:00N 47°35' W 003°35'1 2.7
2017-Nov-16 07:30N 47°36' W 003°33'2 4.4
2017-Nov-16 07:00N 47°34' W 003°31'2 4.2
2017-Nov-16 06:30N 47°32' W 003°31'2 3.5
2017-Nov-16 06:00N 47°30' W 003°31'2 4.0
2017-Nov-16 05:30N 47°28' W 003°30'2 3.8
2017-Nov-16 05:00N 47°26' W 003°29'2 3.8
2017-Nov-16 04:30N 47°25' W 003°28'2 4.1
2017-Nov-16 04:00N 47°23' W 003°28'2 3.9
2017-Nov-16 03:30N 47°21' W 003°27'2 3.7
2017-Nov-16 03:00N 47°20' W 003°24'1 2.5
2017-Nov-16 02:30N 47°20' W 003°26'2 3.6
2017-Nov-16 02:00N 47°21' W 003°28'1 2.9
2017-Nov-16 01:30N 47°20' W 003°26'1 3.0
2017-Nov-16 01:00N 47°19' W 003°25'2 3.8
2017-Nov-16 00:30N 47°20' W 003°27'2 4.0
2017-Nov-16 00:00N 47°21' W 003°29'1 1.9
2017-Nov-15 23:30N 47°22' W 003°29'2 3.5
2017-Nov-15 23:00N 47°22' W 003°27'2 4.2
2017-Nov-15 22:30N 47°21' W 003°24'3 6.5
2017-Nov-15 22:00N 47°21' W 003°19'1 2.1
2017-Nov-15 21:30N 47°21' W 003°21'1 2.5
2017-Nov-15 21:00N 47°22' W 003°22'2 3.7
2017-Nov-15 20:30N 47°24' W 003°23'2 3.7
2017-Nov-15 20:00N 47°25' W 003°24'1 2.3
2017-Nov-15 19:30N 47°26' W 003°23'3 5.3
2017-Nov-15 19:00N 47°26' W 003°27'2 3.5
2017-Nov-15 18:30N 47°28' W 003°28'2 4.2
2017-Nov-15 18:00N 47°29' W 003°30'2 4.3
2017-Nov-15 17:30N 47°30' W 003°33'2 4.1
2017-Nov-15 17:00N 47°32' W 003°31'2 4.1
2017-Nov-15 16:30N 47°34' W 003°32'1 2.0
2017-Nov-15 16:00N 47°34' W 003°31'2 4.0
2017-Nov-15 15:30N 47°34' W 003°34'1 2.2
2017-Nov-15 15:00N 47°35' W 003°33'2 4.3
2017-Nov-15 14:30N 47°34' W 003°31'2 3.7
2017-Nov-15 14:00N 47°34' W 003°34'1 2.1
2017-Nov-15 13:30N 47°35' W 003°34'2 4.4
2017-Nov-15 13:00N 47°34' W 003°32'1 1.5
2017-Nov-15 12:30N 47°34' W 003°32'2 4.2
2017-Nov-15 12:00N 47°35' W 003°35'2 3.5
2017-Nov-15 11:30N 47°36' W 003°37'2 3.6
2017-Nov-15 11:00N 47°36' W 003°40'2 4.0
2017-Nov-15 10:30N 47°34' W 003°38'2 3.6
2017-Nov-15 10:00N 47°35' W 003°40'2 3.9
2017-Nov-15 09:30N 47°36' W 003°42'2 3.7
2017-Nov-15 09:00N 47°37' W 003°44'1 1.7
2017-Nov-15 08:30N 47°38' W 003°44'2 3.7
2017-Nov-15 08:00N 47°38' W 003°42'1 2.5
2017-Nov-15 07:30N 47°38' W 003°44'1 2.4
2017-Nov-15 06:59N 47°37' W 003°42'1 2.4
2017-Nov-15 06:30N 47°38' W 003°43'1 2.8
2017-Nov-15 06:00N 47°39' W 003°42'0 0.9
2017-Nov-15 05:30N 47°39' W 003°43'0 0.5
2017-Nov-15 05:00N 47°39' W 003°42'3 5.3
2017-Nov-15 04:30N 47°39' W 003°39'4 7.8
2017-Nov-15 04:00N 47°40' W 003°33'4 7.8
2017-Nov-15 03:30N 47°40' W 003°27'4 8.3
2017-Nov-15 03:00N 47°43' W 003°22'1 1.9
2017-Nov-15 02:30N 47°44' W 003°22'0 0.0
2017-Nov-15 02:00N 47°44' W 003°22'4 7.2
2017-Nov-15 01:30N 47°40' W 003°22'4 8.9
2017-Nov-15 01:00N 47°36' W 003°24'4 8.9
2017-Nov-15 00:30N 47°33' W 003°29'4 8.7
2017-Nov-15 00:00N 47°30' W 003°34'3 5.4
2017-Nov-14 23:30N 47°29' W 003°38'2 4.1
2017-Nov-14 23:00N 47°27' W 003°38'2 3.9
2017-Nov-14 22:30N 47°25' W 003°38'2 3.7
2017-Nov-14 22:00N 47°24' W 003°40'2 4.2
2017-Nov-14 21:30N 47°25' W 003°43'2 3.4
2017-Nov-14 21:00N 47°26' W 003°42'2 4.3
2017-Nov-14 20:30N 47°26' W 003°38'2 3.8
2017-Nov-14 20:00N 47°27' W 003°36'2 4.0
2017-Nov-14 19:30N 47°29' W 003°38'2 4.5
2017-Nov-14 19:00N 47°31' W 003°37'2 4.3
2017-Nov-14 18:30N 47°33' W 003°37'2 4.4
2017-Nov-14 18:00N 47°35' W 003°39'2 3.7
2017-Nov-14 17:30N 47°35' W 003°41'2 4.4
2017-Nov-14 17:00N 47°37' W 003°43'1 2.8
2017-Nov-14 16:30N 47°38' W 003°42'1 2.6
2017-Nov-14 16:00N 47°37' W 003°43'1 2.9
2017-Nov-14 15:30N 47°38' W 003°45'2 3.9
2017-Nov-14 15:00N 47°37' W 003°43'2 3.1
2017-Nov-14 14:30N 47°36' W 003°41'1 2.1
2017-Nov-14 14:00N 47°37' W 003°42'2 3.6
2017-Nov-14 13:30N 47°38' W 003°43'2 3.4
2017-Nov-14 13:00N 47°37' W 003°43'2 3.4
2017-Nov-14 12:30N 47°36' W 003°41'2 3.3
2017-Nov-14 12:00N 47°35' W 003°43'2 3.9
2017-Nov-14 11:30N 47°37' W 003°43'2 4.2
2017-Nov-14 11:00N 47°38' W 003°45'2 4.2
2017-Nov-14 10:30N 47°38' W 003°42'1 2.4
2017-Nov-14 10:00N 47°37' W 003°43'1 1.9
2017-Nov-14 09:30N 47°37' W 003°45'2 4.1
2017-Nov-14 09:00N 47°36' W 003°43'1 3.0
2017-Nov-14 08:30N 47°35' W 003°41'2 3.1
2017-Nov-14 08:00N 47°35' W 003°43'2 3.7
2017-Nov-14 07:30N 47°37' W 003°43'1 2.3
2017-Nov-14 07:00N 47°38' W 003°42'1 2.6
2017-Nov-14 06:30N 47°37' W 003°44'1 2.6
2017-Nov-14 06:00N 47°39' W 003°43'0 0.3
2017-Nov-14 05:30N 47°39' W 003°42'0 0.3
2017-Nov-14 05:00N 47°39' W 003°42'1 1.6
2017-Nov-14 04:30N 47°39' W 003°41'4 8.5
2017-Nov-14 04:00N 47°40' W 003°35'4 8.6
2017-Nov-14 03:30N 47°40' W 003°29'4 8.6
2017-Nov-14 03:00N 47°42' W 003°23'2 4.1
2017-Nov-14 02:30N 47°44' W 003°22'1 1.7
2017-Nov-14 02:00N 47°43' W 003°22'4 8.5
2017-Nov-14 01:30N 47°39' W 003°23'4 8.7
2017-Nov-14 01:00N 47°35' W 003°26'4 7.9
2017-Nov-14 00:30N 47°32' W 003°31'2 3.7
2017-Nov-14 00:00N 47°31' W 003°31'2 4.1
2017-Nov-13 23:30N 47°29' W 003°30'2 4.1
2017-Nov-13 23:00N 47°27' W 003°29'2 4.1
2017-Nov-13 22:30N 47°25' W 003°28'2 3.8
2017-Nov-13 22:00N 47°23' W 003°28'70 3.5
2017-Nov-13 02:00N 47°56' W 004°59'1 2.9
2017-Nov-13 01:30N 47°55' W 005°00'1 1.7
2017-Nov-13 01:00N 47°54' W 004°60'1 2.9
2017-Nov-13 00:30N 47°54' W 004°57'0 0.5
2017-Nov-13 00:00N 47°54' W 004°58'2 3.1
2017-Nov-12 23:30N 47°55' W 004°60'2 3.8
2017-Nov-12 23:00N 47°57' W 004°60'1 1.0
2017-Nov-12 22:30N 47°57' W 004°60'2 3.0
2017-Nov-12 22:01N 47°59' W 004°59'2 3.4
2017-Nov-12 21:31N 47°59' W 004°57'2 3.7
2017-Nov-12 21:00N 47°58' W 004°55'2 4.0
2017-Nov-12 20:30N 47°57' W 004°52'8 4.2
2017-Nov-12 18:29N 47°53' W 004°41'4 8.0
2017-Nov-12 17:59N 47°51' W 004°36'4 7.9
2017-Nov-12 17:25N 47°48' W 004°30'3 7.8
2017-Nov-12 16:59N 47°47' W 004°26'4 8.0
2017-Nov-12 16:30N 47°45' W 004°21'16 8.5
2017-Nov-12 14:39N 47°45' W 003°57'4 8.6
2017-Nov-12 14:12N 47°44' W 003°52'2 8.6
2017-Nov-12 14:00N 47°44' W 003°49'4 8.6
2017-Nov-12 13:30N 47°43' W 003°43'4 8.5
2017-Nov-12 13:00N 47°42' W 003°37'4 8.3
2017-Nov-12 12:30N 47°41' W 003°31'4 8.2
2017-Nov-12 12:00N 47°41' W 003°25'3 6.5
2017-Nov-12 11:30N 47°44' W 003°22'0 0.0
2017-Nov-11 14:28N 47°44' W 003°22'0 0.0
2017-Nov-11 14:00N 47°44' W 003°22'0 0.0
2017-Nov-11 13:30N 47°44' W 003°22'0 0.0
2017-Nov-11 13:00N 47°44' W 003°22'0 0.4
2017-Nov-11 12:30N 47°44' W 003°22'0 0.0
2017-Nov-11 12:00N 47°44' W 003°22'0 0.0
2017-Nov-11 11:30N 47°44' W 003°22'0 0.0
2017-Nov-11 11:00N 47°44' W 003°22'2 4.5
2017-Nov-11 10:30N 47°42' W 003°23'4 9.0
2017-Nov-11 10:00N 47°41' W 003°30'5 9.4
2017-Nov-11 09:30N 47°42' W 003°36'5 9.3
2017-Nov-11 09:00N 47°43' W 003°43'5 9.3
2017-Nov-11 08:30N 47°44' W 003°50'7 9.7
2017-Nov-11 07:46N 47°45' W 004°01'8 9.6
2017-Nov-11 06:55N 47°45' W 004°13'4 9.8
2017-Nov-11 06:30N 47°45' W 004°19'5 9.4
2017-Nov-11 05:59N 47°46' W 004°26'4 8.8
2017-Nov-11 05:30N 47°48' W 004°31'4 8.8
2017-Nov-11 05:00N 47°51' W 004°37'4 8.7
2017-Nov-11 04:30N 47°53' W 004°42'4 8.4
2017-Nov-11 04:01N 47°54' W 004°48'4 8.0
2017-Nov-11 03:31N 47°57' W 004°53'3 6.3
2017-Nov-11 03:01N 47°58' W 004°57'3 6.0
2017-Nov-11 02:31N 47°60' W 005°01'1 2.5
2017-Nov-11 02:00N 48°00' W 005°02'1 2.2
2017-Nov-11 01:30N 47°60' W 005°01'1 2.7
2017-Nov-11 01:00N 47°58' W 005°00'1 2.7
2017-Nov-11 00:30N 47°57' W 004°59'1 1.9
2017-Nov-11 00:00N 47°58' W 005°00'1 2.5
2017-Nov-10 23:30N 47°58' W 004°58'1 2.4
2017-Nov-10 23:00N 47°57' W 004°57'2 3.0
2017-Nov-10 22:31N 47°56' W 004°55'1 2.9
2017-Nov-10 22:01N 47°58' W 004°56'2 4.3
2017-Nov-10 21:31N 47°58' W 004°59'2 4.3
2017-Nov-10 21:00N 47°60' W 005°02'1 1.1
2017-Nov-10 20:31N 47°60' W 005°01'2 3.3
2017-Nov-10 20:01N 47°58' W 004°60'1 1.7
2017-Nov-10 19:31N 47°58' W 004°58'2 3.5
2017-Nov-10 19:00N 47°57' W 004°56'2 3.9
2017-Nov-10 18:31N 47°57' W 004°53'2 4.0
2017-Nov-10 18:00N 47°56' W 004°51'2 3.9
2017-Nov-10 17:30N 47°55' W 004°48'2 3.9
2017-Nov-10 17:01N 47°54' W 004°46'4 8.1
2017-Nov-10 16:30N 47°51' W 004°42'4 8.5
2017-Nov-10 15:59N 47°47' W 004°38'4 8.3
2017-Nov-10 15:30N 47°44' W 004°35'5 8.2
2017-Nov-10 14:56N 47°40' W 004°30'2 2.6
2017-Nov-10 14:18N 47°40' W 004°28'1 3.6
2017-Nov-10 13:57N 47°40' W 004°26'2 3.6
2017-Nov-10 13:26N 47°39' W 004°24'2 3.5
2017-Nov-10 12:54N 47°38' W 004°21'1 3.6
2017-Nov-10 12:29N 47°38' W 004°19'14 3.2
2017-Nov-10 08:05N 47°33' W 003°59'0 3.5
2017-Nov-10 08:00N 47°33' W 003°58'2 3.4
2017-Nov-10 07:30N 47°33' W 003°56'3 7.0
2017-Nov-10 07:00N 47°34' W 003°51'4 8.2
2017-Nov-10 06:31N 47°36' W 003°45'4 8.5
2017-Nov-10 06:01N 47°37' W 003°40'4 8.6
2017-Nov-10 05:31N 47°39' W 003°34'4 8.6
2017-Nov-10 05:01N 47°40' W 003°28'4 8.3
2017-Nov-10 04:31N 47°42' W 003°22'1 2.8
2017-Nov-10 04:01N 47°44' W 003°22'0 0.0
2017-Nov-10 03:31N 47°44' W 003°22'0 0.3
2017-Nov-10 03:00N 47°44' W 003°22'0 0.0
2017-Nov-10 02:31N 47°44' W 003°22'0 0.0
2017-Nov-10 02:01N 47°44' W 003°22'0 0.0
2017-Nov-10 01:31N 47°44' W 003°22'2 4.4
2017-Nov-10 01:00N 47°42' W 003°22'4 8.7
2017-Nov-10 00:31N 47°38' W 003°19'4 9.0
2017-Nov-10 00:01N 47°34' W 003°16'5 9.2
2017-Nov-09 23:31N 47°30' W 003°13'5 9.3
2017-Nov-09 23:01N 47°26' W 003°09'5 9.1
2017-Nov-09 22:30N 47°22' W 003°05'4 8.4
2017-Nov-09 22:00N 47°18' W 003°02'4 8.5
2017-Nov-09 21:30N 47°14' W 003°01'4 8.7
2017-Nov-09 21:00N 47°10' W 002°60'19 0.5
2017-Nov-08 05:07N 47°07' W 003°27'1 4.2
2017-Nov-08 04:58N 47°07' W 003°27'2 4.0
2017-Nov-08 04:29N 47°09' W 003°28'2 4.5
2017-Nov-08 04:00N 47°11' W 003°28'3 7.0
2017-Nov-08 03:31N 47°15' W 003°29'  

Dump ship's entire track history